Terminal Aerodrome Forecast
Issued by NWS Mt. Holly, NJ

Home | Current Version | Previous Version | Text Only | Print | Product List | Glossary On
Versions: 1 2 3 4 5 6 7 8 9 10 11 12 13 14 15 16 17 18 19 20 21 22 23 24 25 26 27 28
000
FTUS41 KPHI 290200 AAA
TAFPHL
TAF AMD
KPHL 290257Z 2903/3006 32008KT P6SM SKC
     FM290600 35006KT P6SM SKC
     FM291000 VRB03KT P6SM SKC
     FM291700 15006KT P6SM BKN100
     FM300300 19006KT P6SM -SHSN OVC040=

USA.gov is the U.S. government's official web portal to all federal, state and local government web resources and services.